sensor_id;sensor_type;location;lat;lon;timestamp;P1;durP1;ratioP1;P2;durP2;ratioP2
6358;SDS011;3212;51.460;11.868;2023-12-20T00:01:30;4.80;;;3.37;;
6358;SDS011;3212;51.460;11.868;2023-12-20T00:04:53;3.97;;;2.70;;
6358;SDS011;3212;51.460;11.868;2023-12-20T00:08:16;5.27;;;3.20;;
6358;SDS011;3212;51.460;11.868;2023-12-20T00:11:39;3.77;;;2.70;;
6358;SDS011;3212;51.460;11.868;2023-12-20T00:15:02;3.60;;;2.83;;
6358;SDS011;3212;51.460;11.868;2023-12-20T00:18:26;3.30;;;2.43;;
6358;SDS011;3212;51.460;11.868;2023-12-20T00:21:49;5.20;;;3.20;;
6358;SDS011;3212;51.460;11.868;2023-12-20T00:25:12;10.00;;;3.37;;
6358;SDS011;3212;51.460;11.868;2023-12-20T00:28:35;3.92;;;2.95;;
6358;SDS011;3212;51.460;11.868;2023-12-20T00:31:57;5.27;;;2.93;;
6358;SDS011;3212;51.460;11.868;2023-12-20T00:35:20;5.13;;;3.20;;
6358;SDS011;3212;51.460;11.868;2023-12-20T00:38:43;3.90;;;2.85;;
6358;SDS011;3212;51.460;11.868;2023-12-20T00:42:07;4.20;;;3.30;;
6358;SDS011;3212;51.460;11.868;2023-12-20T00:45:30;4.73;;;2.87;;
6358;SDS011;3212;51.460;11.868;2023-12-20T00:48:53;4.40;;;3.00;;
6358;SDS011;3212;51.460;11.868;2023-12-20T00:52:16;4.43;;;3.20;;
6358;SDS011;3212;51.460;11.868;2023-12-20T00:55:41;3.20;;;2.50;;
6358;SDS011;3212;51.460;11.868;2023-12-20T00:59:04;5.60;;;3.30;;
6358;SDS011;3212;51.460;11.868;2023-12-20T01:02:27;3.20;;;2.58;;
6358;SDS011;3212;51.460;11.868;2023-12-20T01:05:51;5.00;;;2.90;;
6358;SDS011;3212;51.460;11.868;2023-12-20T01:09:14;4.20;;;2.70;;
6358;SDS011;3212;51.460;11.868;2023-12-20T01:12:37;4.63;;;3.10;;
6358;SDS011;3212;51.460;11.868;2023-12-20T01:16:01;5.53;;;3.50;;
6358;SDS011;3212;51.460;11.868;2023-12-20T01:19:24;4.63;;;3.13;;
6358;SDS011;3212;51.460;11.868;2023-12-20T01:22:47;4.90;;;3.20;;
6358;SDS011;3212;51.460;11.868;2023-12-20T01:26:10;4.90;;;3.17;;
6358;SDS011;3212;51.460;11.868;2023-12-20T01:29:33;4.40;;;3.20;;
6358;SDS011;3212;51.460;11.868;2023-12-20T01:32:56;4.77;;;3.10;;
6358;SDS011;3212;51.460;11.868;2023-12-20T01:36:19;4.63;;;3.10;;
6358;SDS011;3212;51.460;11.868;2023-12-20T01:39:42;5.63;;;3.20;;
6358;SDS011;3212;51.460;11.868;2023-12-20T01:43:07;4.83;;;3.33;;
6358;SDS011;3212;51.460;11.868;2023-12-20T01:46:29;4.37;;;3.07;;
6358;SDS011;3212;51.460;11.868;2023-12-20T01:49:52;7.27;;;3.50;;
6358;SDS011;3212;51.460;11.868;2023-12-20T01:53:16;4.33;;;3.20;;
6358;SDS011;3212;51.460;11.868;2023-12-20T01:56:39;5.60;;;3.50;;
6358;SDS011;3212;51.460;11.868;2023-12-20T02:00:01;4.53;;;2.73;;
6358;SDS011;3212;51.460;11.868;2023-12-20T02:03:24;5.07;;;3.40;;
6358;SDS011;3212;51.460;11.868;2023-12-20T02:06:47;4.80;;;3.10;;
6358;SDS011;3212;51.460;11.868;2023-12-20T02:10:10;4.53;;;2.90;;
6358;SDS011;3212;51.460;11.868;2023-12-20T02:13:34;3.37;;;2.80;;
6358;SDS011;3212;51.460;11.868;2023-12-20T02:16:56;4.30;;;3.20;;
6358;SDS011;3212;51.460;11.868;2023-12-20T02:20:19;6.47;;;3.00;;
6358;SDS011;3212;51.460;11.868;2023-12-20T02:23:42;6.80;;;2.97;;
6358;SDS011;3212;51.460;11.868;2023-12-20T02:27:05;5.90;;;3.47;;
6358;SDS011;3212;51.460;11.868;2023-12-20T02:30:27;4.30;;;3.27;;
6358;SDS011;3212;51.460;11.868;2023-12-20T02:33:50;4.00;;;2.70;;
6358;SDS011;3212;51.460;11.868;2023-12-20T02:37:12;3.77;;;3.23;;
6358;SDS011;3212;51.460;11.868;2023-12-20T02:40:35;4.37;;;3.17;;
6358;SDS011;3212;51.460;11.868;2023-12-20T02:43:58;4.07;;;3.17;;
6358;SDS011;3212;51.460;11.868;2023-12-20T02:47:21;5.87;;;3.70;;
6358;SDS011;3212;51.460;11.868;2023-12-20T02:50:45;5.70;;;3.22;;
6358;SDS011;3212;51.460;11.868;2023-12-20T02:54:08;4.30;;;3.07;;
6358;SDS011;3212;51.460;11.868;2023-12-20T02:57:30;5.03;;;3.20;;
6358;SDS011;3212;51.460;11.868;2023-12-20T03:00:52;5.50;;;3.30;;
6358;SDS011;3212;51.460;11.868;2023-12-20T03:04:16;3.90;;;3.00;;
6358;SDS011;3212;51.460;11.868;2023-12-20T03:07:39;4.43;;;2.93;;
6358;SDS011;3212;51.460;11.868;2023-12-20T03:11:02;4.40;;;3.00;;
6358;SDS011;3212;51.460;11.868;2023-12-20T03:14:24;4.90;;;3.10;;
6358;SDS011;3212;51.460;11.868;2023-12-20T03:17:47;4.20;;;2.93;;
6358;SDS011;3212;51.460;11.868;2023-12-20T03:21:11;4.40;;;3.17;;
6358;SDS011;3212;51.460;11.868;2023-12-20T03:24:34;4.47;;;3.00;;
6358;SDS011;3212;51.460;11.868;2023-12-20T03:27:57;4.30;;;3.20;;
6358;SDS011;3212;51.460;11.868;2023-12-20T03:31:20;3.17;;;2.80;;
6358;SDS011;3212;51.460;11.868;2023-12-20T03:34:43;4.40;;;2.60;;
6358;SDS011;3212;51.460;11.868;2023-12-20T03:38:07;4.20;;;2.77;;
6358;SDS011;3212;51.460;11.868;2023-12-20T03:41:30;5.33;;;3.80;;
6358;SDS011;3212;51.460;11.868;2023-12-20T03:44:53;4.57;;;2.65;;
6358;SDS011;3212;51.460;11.868;2023-12-20T03:48:16;4.60;;;3.00;;
6358;SDS011;3212;51.460;11.868;2023-12-20T03:51:39;3.60;;;2.43;;
6358;SDS011;3212;51.460;11.868;2023-12-20T03:55:02;3.50;;;2.70;;
6358;SDS011;3212;51.460;11.868;2023-12-20T03:58:25;3.37;;;2.50;;
6358;SDS011;3212;51.460;11.868;2023-12-20T04:01:47;3.62;;;2.80;;
6358;SDS011;3212;51.460;11.868;2023-12-20T04:05:10;5.07;;;2.57;;
6358;SDS011;3212;51.460;11.868;2023-12-20T04:08:33;2.60;;;2.30;;
6358;SDS011;3212;51.460;11.868;2023-12-20T04:11:56;3.57;;;2.57;;
6358;SDS011;3212;51.460;11.868;2023-12-20T04:15:19;4.70;;;2.83;;
6358;SDS011;3212;51.460;11.868;2023-12-20T04:18:42;3.90;;;2.70;;
6358;SDS011;3212;51.460;11.868;2023-12-20T04:22:05;3.83;;;2.60;;
6358;SDS011;3212;51.460;11.868;2023-12-20T04:25:28;3.70;;;2.20;;
6358;SDS011;3212;51.460;11.868;2023-12-20T04:28:51;3.20;;;2.53;;
6358;SDS011;3212;51.460;11.868;2023-12-20T04:32:14;3.08;;;2.33;;
6358;SDS011;3212;51.460;11.868;2023-12-20T04:35:38;2.50;;;1.87;;
6358;SDS011;3212;51.460;11.868;2023-12-20T04:39:01;3.05;;;2.42;;
6358;SDS011;3212;51.460;11.868;2023-12-20T04:42:23;2.30;;;1.73;;
6358;SDS011;3212;51.460;11.868;2023-12-20T04:45:47;2.27;;;1.90;;
6358;SDS011;3212;51.460;11.868;2023-12-20T04:49:09;3.53;;;2.10;;
6358;SDS011;3212;51.460;11.868;2023-12-20T04:52:32;2.33;;;2.13;;
6358;SDS011;3212;51.460;11.868;2023-12-20T04:55:55;3.30;;;2.40;;
6358;SDS011;3212;51.460;11.868;2023-12-20T04:59:18;2.90;;;2.33;;
6358;SDS011;3212;51.460;11.868;2023-12-20T05:02:41;2.60;;;2.10;;
6358;SDS011;3212;51.460;11.868;2023-12-20T05:06:04;2.77;;;2.20;;
6358;SDS011;3212;51.460;11.868;2023-12-20T05:09:27;2.90;;;2.43;;
6358;SDS011;3212;51.460;11.868;2023-12-20T05:12:51;2.67;;;2.10;;
6358;SDS011;3212;51.460;11.868;2023-12-20T05:16:14;4.33;;;2.50;;
6358;SDS011;3212;51.460;11.868;2023-12-20T05:19:37;3.60;;;2.70;;
6358;SDS011;3212;51.460;11.868;2023-12-20T05:23:00;2.50;;;2.30;;
6358;SDS011;3212;51.460;11.868;2023-12-20T05:26:23;3.43;;;2.33;;
6358;SDS011;3212;51.460;11.868;2023-12-20T05:29:46;3.50;;;2.23;;
6358;SDS011;3212;51.460;11.868;2023-12-20T05:33:09;3.30;;;2.20;;
6358;SDS011;3212;51.460;11.868;2023-12-20T05:36:33;2.70;;;1.90;;
6358;SDS011;3212;51.460;11.868;2023-12-20T05:39:56;2.77;;;2.10;;
6358;SDS011;3212;51.460;11.868;2023-12-20T05:43:18;2.20;;;1.80;;
6358;SDS011;3212;51.460;11.868;2023-12-20T05:46:41;7.90;;;2.00;;
6358;SDS011;3212;51.460;11.868;2023-12-20T05:50:04;9.18;;;2.15;;
6358;SDS011;3212;51.460;11.868;2023-12-20T05:53:27;2.30;;;2.10;;
6358;SDS011;3212;51.460;11.868;2023-12-20T05:56:49;2.03;;;1.83;;
6358;SDS011;3212;51.460;11.868;2023-12-20T06:00:12;2.47;;;2.03;;
6358;SDS011;3212;51.460;11.868;2023-12-20T06:03:36;4.93;;;2.60;;
6358;SDS011;3212;51.460;11.868;2023-12-20T06:06:59;3.53;;;2.57;;
6358;SDS011;3212;51.460;11.868;2023-12-20T06:10:22;2.93;;;2.50;;
6358;SDS011;3212;51.460;11.868;2023-12-20T06:13:45;4.80;;;2.73;;
6358;SDS011;3212;51.460;11.868;2023-12-20T06:17:08;3.47;;;2.23;;
6358;SDS011;3212;51.460;11.868;2023-12-20T06:20:32;5.13;;;2.83;;
6358;SDS011;3212;51.460;11.868;2023-12-20T06:23:55;2.50;;;2.30;;
6358;SDS011;3212;51.460;11.868;2023-12-20T06:27:18;3.63;;;2.30;;
6358;SDS011;3212;51.460;11.868;2023-12-20T06:30:41;2.90;;;2.17;;
6358;SDS011;3212;51.460;11.868;2023-12-20T06:34:04;3.63;;;2.50;;
6358;SDS011;3212;51.460;11.868;2023-12-20T06:37:27;4.13;;;2.40;;
6358;SDS011;3212;51.460;11.868;2023-12-20T06:40:51;4.17;;;2.50;;
6358;SDS011;3212;51.460;11.868;2023-12-20T06:44:14;2.80;;;2.33;;
6358;SDS011;3212;51.460;11.868;2023-12-20T06:47:37;3.37;;;2.50;;
6358;SDS011;3212;51.460;11.868;2023-12-20T06:51:00;3.47;;;2.17;;
6358;SDS011;3212;51.460;11.868;2023-12-20T06:54:23;9.03;;;2.07;;
6358;SDS011;3212;51.460;11.868;2023-12-20T06:57:46;3.20;;;1.60;;
6358;SDS011;3212;51.460;11.868;2023-12-20T07:01:14;2.83;;;1.60;;
6358;SDS011;3212;51.460;11.868;2023-12-20T07:04:39;3.87;;;2.20;;
6358;SDS011;3212;51.460;11.868;2023-12-20T07:08:01;2.03;;;1.40;;
6358;SDS011;3212;51.460;11.868;2023-12-20T07:11:24;3.10;;;1.20;;
6358;SDS011;3212;51.460;11.868;2023-12-20T07:14:48;3.97;;;1.87;;
6358;SDS011;3212;51.460;11.868;2023-12-20T07:18:10;2.90;;;1.20;;
6358;SDS011;3212;51.460;11.868;2023-12-20T07:21:34;2.53;;;1.30;;
6358;SDS011;3212;51.460;11.868;2023-12-20T07:24:58;2.63;;;1.60;;
6358;SDS011;3212;51.460;11.868;2023-12-20T07:28:21;2.13;;;1.30;;
6358;SDS011;3212;51.460;11.868;2023-12-20T07:31:44;3.37;;;1.40;;
6358;SDS011;3212;51.460;11.868;2023-12-20T07:35:07;2.17;;;1.50;;
6358;SDS011;3212;51.460;11.868;2023-12-20T07:38:30;2.20;;;1.33;;
6358;SDS011;3212;51.460;11.868;2023-12-20T07:41:52;4.17;;;1.57;;
6358;SDS011;3212;51.460;11.868;2023-12-20T07:45:14;3.47;;;1.30;;
6358;SDS011;3212;51.460;11.868;2023-12-20T07:48:37;3.63;;;1.53;;
6358;SDS011;3212;51.460;11.868;2023-12-20T07:51:59;3.30;;;1.50;;
6358;SDS011;3212;51.460;11.868;2023-12-20T07:55:22;5.93;;;1.50;;
6358;SDS011;3212;51.460;11.868;2023-12-20T07:58:46;1.60;;;1.10;;
6358;SDS011;3212;51.460;11.868;2023-12-20T08:02:09;4.63;;;1.30;;
6358;SDS011;3212;51.460;11.868;2023-12-20T08:05:32;4.73;;;1.67;;
6358;SDS011;3212;51.460;11.868;2023-12-20T08:08:55;2.73;;;1.33;;
6358;SDS011;3212;51.460;11.868;2023-12-20T08:12:18;5.33;;;1.50;;
6358;SDS011;3212;51.460;11.868;2023-12-20T08:15:40;2.07;;;1.10;;
6358;SDS011;3212;51.460;11.868;2023-12-20T08:19:03;3.63;;;1.53;;
6358;SDS011;3212;51.460;11.868;2023-12-20T08:22:27;5.90;;;1.67;;
6358;SDS011;3212;51.460;11.868;2023-12-20T08:25:50;13.03;;;2.37;;
6358;SDS011;3212;51.460;11.868;2023-12-20T08:29:13;1.33;;;1.23;;
6358;SDS011;3212;51.460;11.868;2023-12-20T08:32:36;2.43;;;1.50;;
6358;SDS011;3212;51.460;11.868;2023-12-20T08:35:59;1.73;;;1.10;;
6358;SDS011;3212;51.460;11.868;2023-12-20T08:39:22;2.03;;;1.10;;
6358;SDS011;3212;51.460;11.868;2023-12-20T08:42:46;2.30;;;1.53;;
6358;SDS011;3212;51.460;11.868;2023-12-20T08:46:09;1.83;;;1.30;;
6358;SDS011;3212;51.460;11.868;2023-12-20T08:49:32;4.43;;;1.30;;
6358;SDS011;3212;51.460;11.868;2023-12-20T08:52:55;5.37;;;1.60;;
6358;SDS011;3212;51.460;11.868;2023-12-20T08:56:19;2.80;;;1.80;;
6358;SDS011;3212;51.460;11.868;2023-12-20T08:59:42;2.70;;;1.50;;
6358;SDS011;3212;51.460;11.868;2023-12-20T09:03:05;2.60;;;1.50;;
6358;SDS011;3212;51.460;11.868;2023-12-20T09:06:28;6.43;;;1.70;;
6358;SDS011;3212;51.460;11.868;2023-12-20T09:09:51;2.33;;;1.30;;
6358;SDS011;3212;51.460;11.868;2023-12-20T09:13:14;4.37;;;1.50;;
6358;SDS011;3212;51.460;11.868;2023-12-20T09:16:37;3.60;;;1.33;;
6358;SDS011;3212;51.460;11.868;2023-12-20T09:20:01;4.57;;;1.80;;
6358;SDS011;3212;51.460;11.868;2023-12-20T09:23:24;8.40;;;1.73;;
6358;SDS011;3212;51.460;11.868;2023-12-20T09:26:47;3.67;;;1.87;;
6358;SDS011;3212;51.460;11.868;2023-12-20T09:30:10;3.63;;;1.50;;
6358;SDS011;3212;51.460;11.868;2023-12-20T09:33:33;4.90;;;1.60;;
6358;SDS011;3212;51.460;11.868;2023-12-20T09:36:57;7.23;;;1.87;;
6358;SDS011;3212;51.460;11.868;2023-12-20T09:40:20;7.20;;;1.93;;
6358;SDS011;3212;51.460;11.868;2023-12-20T09:43:43;3.77;;;1.80;;
6358;SDS011;3212;51.460;11.868;2023-12-20T09:47:06;3.40;;;2.20;;
6358;SDS011;3212;51.460;11.868;2023-12-20T09:50:30;4.40;;;2.10;;
6358;SDS011;3212;51.460;11.868;2023-12-20T09:53:52;4.80;;;2.40;;
6358;SDS011;3212;51.460;11.868;2023-12-20T09:57:17;5.97;;;2.17;;
6358;SDS011;3212;51.460;11.868;2023-12-20T10:00:40;3.80;;;2.00;;
6358;SDS011;3212;51.460;11.868;2023-12-20T10:04:05;3.77;;;2.10;;
6358;SDS011;3212;51.460;11.868;2023-12-20T10:07:26;4.63;;;2.10;;
6358;SDS011;3212;51.460;11.868;2023-12-20T10:10:49;3.77;;;2.10;;
6358;SDS011;3212;51.460;11.868;2023-12-20T10:14:12;5.73;;;2.50;;
6358;SDS011;3212;51.460;11.868;2023-12-20T10:17:35;4.23;;;1.70;;
6358;SDS011;3212;51.460;11.868;2023-12-20T10:21:00;3.10;;;2.20;;
6358;SDS011;3212;51.460;11.868;2023-12-20T10:24:22;5.60;;;1.93;;
6358;SDS011;3212;51.460;11.868;2023-12-20T10:27:45;3.93;;;2.00;;
6358;SDS011;3212;51.460;11.868;2023-12-20T10:31:08;5.00;;;1.63;;
6358;SDS011;3212;51.460;11.868;2023-12-20T10:34:32;3.07;;;1.63;;
6358;SDS011;3212;51.460;11.868;2023-12-20T10:37:55;6.03;;;1.87;;
6358;SDS011;3212;51.460;11.868;2023-12-20T10:41:19;3.90;;;1.80;;
6358;SDS011;3212;51.460;11.868;2023-12-20T10:44:41;3.20;;;2.20;;
6358;SDS011;3212;51.460;11.868;2023-12-20T10:48:04;4.50;;;2.07;;
6358;SDS011;3212;51.460;11.868;2023-12-20T10:51:28;4.37;;;1.90;;
6358;SDS011;3212;51.460;11.868;2023-12-20T10:54:52;4.70;;;2.10;;
6358;SDS011;3212;51.460;11.868;2023-12-20T10:58:15;4.67;;;2.30;;
6358;SDS011;3212;51.460;11.868;2023-12-20T11:01:38;3.37;;;1.93;;
6358;SDS011;3212;51.460;11.868;2023-12-20T11:05:07;3.10;;;1.70;;
6358;SDS011;3212;51.460;11.868;2023-12-20T11:08:39;4.20;;;1.70;;
6358;SDS011;3212;51.460;11.868;2023-12-20T11:12:20;7.13;;;1.93;;
6358;SDS011;3212;51.460;11.868;2023-12-20T11:15:42;6.17;;;2.10;;
6358;SDS011;3212;51.460;11.868;2023-12-20T11:19:05;2.90;;;1.67;;
6358;SDS011;3212;51.460;11.868;2023-12-20T11:22:31;2.40;;;1.87;;
6358;SDS011;3212;51.460;11.868;2023-12-20T11:25:55;4.80;;;1.77;;
6358;SDS011;3212;51.460;11.868;2023-12-20T11:32:56;3.70;;;1.93;;
6358;SDS011;3212;51.460;11.868;2023-12-20T11:36:19;3.90;;;1.90;;
6358;SDS011;3212;51.460;11.868;2023-12-20T11:39:43;8.40;;;2.00;;
6358;SDS011;3212;51.460;11.868;2023-12-20T11:43:06;3.83;;;1.67;;
6358;SDS011;3212;51.460;11.868;2023-12-20T11:46:29;3.00;;;1.63;;
6358;SDS011;3212;51.460;11.868;2023-12-20T11:49:51;4.57;;;1.83;;
6358;SDS011;3212;51.460;11.868;2023-12-20T11:53:14;4.20;;;1.70;;
6358;SDS011;3212;51.460;11.868;2023-12-20T11:56:36;8.80;;;1.83;;
6358;SDS011;3212;51.460;11.868;2023-12-20T11:59:59;5.20;;;2.23;;
6358;SDS011;3212;51.460;11.868;2023-12-20T12:03:22;3.57;;;1.60;;
6358;SDS011;3212;51.460;11.868;2023-12-20T12:06:45;5.47;;;1.60;;
6358;SDS011;3212;51.460;11.868;2023-12-20T12:10:07;5.17;;;1.60;;
6358;SDS011;3212;51.460;11.868;2023-12-20T12:13:29;2.03;;;1.70;;
6358;SDS011;3212;51.460;11.868;2023-12-20T12:16:52;4.10;;;1.67;;
6358;SDS011;3212;51.460;11.868;2023-12-20T12:20:14;2.60;;;1.40;;
6358;SDS011;3212;51.460;11.868;2023-12-20T12:23:36;3.33;;;1.60;;
6358;SDS011;3212;51.460;11.868;2023-12-20T12:26:59;4.50;;;1.70;;
6358;SDS011;3212;51.460;11.868;2023-12-20T12:30:21;1.77;;;1.50;;
6358;SDS011;3212;51.460;11.868;2023-12-20T12:33:44;2.23;;;1.63;;
6358;SDS011;3212;51.460;11.868;2023-12-20T12:37:07;1.70;;;1.20;;
6358;SDS011;3212;51.460;11.868;2023-12-20T12:40:29;2.63;;;1.73;;
6358;SDS011;3212;51.460;11.868;2023-12-20T12:43:51;3.87;;;1.67;;
6358;SDS011;3212;51.460;11.868;2023-12-20T12:47:14;7.83;;;1.67;;
6358;SDS011;3212;51.460;11.868;2023-12-20T12:50:37;2.87;;;1.93;;
6358;SDS011;3212;51.460;11.868;2023-12-20T12:54:00;3.33;;;1.77;;
6358;SDS011;3212;51.460;11.868;2023-12-20T12:57:23;4.30;;;2.07;;
6358;SDS011;3212;51.460;11.868;2023-12-20T13:00:46;1.83;;;1.63;;
6358;SDS011;3212;51.460;11.868;2023-12-20T13:04:09;3.37;;;1.60;;
6358;SDS011;3212;51.460;11.868;2023-12-20T13:07:32;1.67;;;1.57;;
6358;SDS011;3212;51.460;11.868;2023-12-20T13:10:54;5.10;;;2.23;;
6358;SDS011;3212;51.460;11.868;2023-12-20T13:14:16;2.17;;;1.50;;
6358;SDS011;3212;51.460;11.868;2023-12-20T13:17:40;2.97;;;1.50;;
6358;SDS011;3212;51.460;11.868;2023-12-20T13:21:03;3.23;;;1.70;;
6358;SDS011;3212;51.460;11.868;2023-12-20T13:24:25;3.43;;;1.70;;
6358;SDS011;3212;51.460;11.868;2023-12-20T13:27:48;4.60;;;1.80;;
6358;SDS011;3212;51.460;11.868;2023-12-20T13:31:10;2.03;;;1.40;;
6358;SDS011;3212;51.460;11.868;2023-12-20T13:34:33;5.10;;;2.20;;
6358;SDS011;3212;51.460;11.868;2023-12-20T13:37:55;3.57;;;1.80;;
6358;SDS011;3212;51.460;11.868;2023-12-20T13:41:18;2.67;;;1.40;;
6358;SDS011;3212;51.460;11.868;2023-12-20T13:44:41;2.60;;;1.50;;
6358;SDS011;3212;51.460;11.868;2023-12-20T13:48:04;2.00;;;1.33;;
6358;SDS011;3212;51.460;11.868;2023-12-20T13:51:27;6.33;;;2.13;;
6358;SDS011;3212;51.460;11.868;2023-12-20T13:54:49;5.13;;;1.63;;
6358;SDS011;3212;51.460;11.868;2023-12-20T13:58:12;4.60;;;1.47;;
6358;SDS011;3212;51.460;11.868;2023-12-20T14:01:36;3.57;;;1.67;;
6358;SDS011;3212;51.460;11.868;2023-12-20T14:04:58;3.10;;;1.67;;
6358;SDS011;3212;51.460;11.868;2023-12-20T14:08:20;6.03;;;2.00;;
6358;SDS011;3212;51.460;11.868;2023-12-20T14:11:43;5.10;;;1.50;;
6358;SDS011;3212;51.460;11.868;2023-12-20T14:15:06;3.80;;;1.50;;
6358;SDS011;3212;51.460;11.868;2023-12-20T14:18:30;7.07;;;1.50;;
6358;SDS011;3212;51.460;11.868;2023-12-20T14:21:53;1.53;;;1.40;;
6358;SDS011;3212;51.460;11.868;2023-12-20T14:25:16;6.50;;;1.60;;
6358;SDS011;3212;51.460;11.868;2023-12-20T14:28:38;4.00;;;1.60;;
6358;SDS011;3212;51.460;11.868;2023-12-20T14:32:01;2.63;;;1.77;;
6358;SDS011;3212;51.460;11.868;2023-12-20T14:35:23;3.00;;;1.43;;
6358;SDS011;3212;51.460;11.868;2023-12-20T14:38:46;2.20;;;1.67;;
6358;SDS011;3212;51.460;11.868;2023-12-20T14:42:08;4.47;;;1.73;;
6358;SDS011;3212;51.460;11.868;2023-12-20T14:45:33;3.70;;;1.90;;
6358;SDS011;3212;51.460;11.868;2023-12-20T14:48:55;1.80;;;1.53;;
6358;SDS011;3212;51.460;11.868;2023-12-20T14:52:18;1.77;;;1.50;;
6358;SDS011;3212;51.460;11.868;2023-12-20T14:55:40;3.03;;;1.40;;
6358;SDS011;3212;51.460;11.868;2023-12-20T14:59:03;3.80;;;1.90;;
6358;SDS011;3212;51.460;11.868;2023-12-20T15:02:26;4.40;;;2.37;;
6358;SDS011;3212;51.460;11.868;2023-12-20T15:05:48;1.77;;;1.60;;
6358;SDS011;3212;51.460;11.868;2023-12-20T15:09:10;1.80;;;1.70;;
6358;SDS011;3212;51.460;11.868;2023-12-20T15:12:33;2.50;;;1.87;;
6358;SDS011;3212;51.460;11.868;2023-12-20T15:15:56;2.50;;;1.50;;
6358;SDS011;3212;51.460;11.868;2023-12-20T15:19:18;2.83;;;1.30;;
6358;SDS011;3212;51.460;11.868;2023-12-20T15:22:41;5.53;;;1.50;;
6358;SDS011;3212;51.460;11.868;2023-12-20T15:26:04;4.23;;;1.60;;
6358;SDS011;3212;51.460;11.868;2023-12-20T15:29:26;2.77;;;1.70;;
6358;SDS011;3212;51.460;11.868;2023-12-20T15:32:49;2.07;;;1.53;;
6358;SDS011;3212;51.460;11.868;2023-12-20T15:36:11;5.63;;;1.40;;
6358;SDS011;3212;51.460;11.868;2023-12-20T15:39:33;2.90;;;1.50;;
6358;SDS011;3212;51.460;11.868;2023-12-20T15:42:57;2.13;;;1.60;;
6358;SDS011;3212;51.460;11.868;2023-12-20T15:46:20;3.03;;;1.47;;
6358;SDS011;3212;51.460;11.868;2023-12-20T15:49:42;5.63;;;1.60;;
6358;SDS011;3212;51.460;11.868;2023-12-20T15:53:05;2.90;;;1.70;;
6358;SDS011;3212;51.460;11.868;2023-12-20T15:56:28;3.13;;;1.43;;
6358;SDS011;3212;51.460;11.868;2023-12-20T15:59:51;3.30;;;1.40;;
6358;SDS011;3212;51.460;11.868;2023-12-20T16:03:13;2.33;;;2.03;;
6358;SDS011;3212;51.460;11.868;2023-12-20T16:06:36;3.57;;;1.70;;
6358;SDS011;3212;51.460;11.868;2023-12-20T16:09:58;2.33;;;1.60;;
6358;SDS011;3212;51.460;11.868;2023-12-20T16:13:21;2.50;;;1.77;;
6358;SDS011;3212;51.460;11.868;2023-12-20T16:16:44;3.33;;;1.93;;
6358;SDS011;3212;51.460;11.868;2023-12-20T16:20:07;4.65;;;2.53;;
6358;SDS011;3212;51.460;11.868;2023-12-20T16:23:30;2.30;;;1.73;;
6358;SDS011;3212;51.460;11.868;2023-12-20T16:26:52;3.00;;;2.30;;
6358;SDS011;3212;51.460;11.868;2023-12-20T16:30:14;4.63;;;1.97;;
6358;SDS011;3212;51.460;11.868;2023-12-20T16:33:37;2.97;;;2.20;;
6358;SDS011;3212;51.460;11.868;2023-12-20T16:36:59;2.23;;;1.77;;
6358;SDS011;3212;51.460;11.868;2023-12-20T16:40:22;2.37;;;1.63;;
6358;SDS011;3212;51.460;11.868;2023-12-20T16:43:45;2.53;;;1.93;;
6358;SDS011;3212;51.460;11.868;2023-12-20T16:47:09;4.00;;;1.70;;
6358;SDS011;3212;51.460;11.868;2023-12-20T16:50:30;5.80;;;2.20;;
6358;SDS011;3212;51.460;11.868;2023-12-20T16:53:53;3.70;;;2.40;;
6358;SDS011;3212;51.460;11.868;2023-12-20T16:57:15;3.63;;;2.23;;
6358;SDS011;3212;51.460;11.868;2023-12-20T17:00:38;4.50;;;2.57;;
6358;SDS011;3212;51.460;11.868;2023-12-20T17:04:00;3.13;;;2.27;;
6358;SDS011;3212;51.460;11.868;2023-12-20T17:07:22;2.47;;;1.83;;
6358;SDS011;3212;51.460;11.868;2023-12-20T17:10:45;3.00;;;1.70;;
6358;SDS011;3212;51.460;11.868;2023-12-20T17:14:07;2.17;;;1.67;;
6358;SDS011;3212;51.460;11.868;2023-12-20T17:17:30;2.37;;;1.83;;
6358;SDS011;3212;51.460;11.868;2023-12-20T17:20:54;3.07;;;2.10;;
6358;SDS011;3212;51.460;11.868;2023-12-20T17:24:16;2.70;;;1.77;;
6358;SDS011;3212;51.460;11.868;2023-12-20T17:27:38;1.63;;;1.53;;
6358;SDS011;3212;51.460;11.868;2023-12-20T17:31:01;3.75;;;1.75;;
6358;SDS011;3212;51.460;11.868;2023-12-20T17:34:23;3.67;;;1.93;;
6358;SDS011;3212;51.460;11.868;2023-12-20T17:37:46;2.80;;;2.07;;
6358;SDS011;3212;51.460;11.868;2023-12-20T17:41:09;3.85;;;2.15;;
6358;SDS011;3212;51.460;11.868;2023-12-20T17:44:32;3.27;;;1.83;;
6358;SDS011;3212;51.460;11.868;2023-12-20T17:47:55;2.00;;;1.60;;
6358;SDS011;3212;51.460;11.868;2023-12-20T17:51:19;2.27;;;1.70;;
6358;SDS011;3212;51.460;11.868;2023-12-20T17:54:42;1.83;;;1.60;;
6358;SDS011;3212;51.460;11.868;2023-12-20T17:58:05;2.63;;;1.50;;
6358;SDS011;3212;51.460;11.868;2023-12-20T18:01:27;2.37;;;1.60;;
6358;SDS011;3212;51.460;11.868;2023-12-20T18:04:50;2.93;;;2.10;;
6358;SDS011;3212;51.460;11.868;2023-12-20T18:08:13;3.23;;;2.00;;
6358;SDS011;3212;51.460;11.868;2023-12-20T18:11:36;3.50;;;1.93;;
6358;SDS011;3212;51.460;11.868;2023-12-20T18:14:58;4.10;;;2.20;;
6358;SDS011;3212;51.460;11.868;2023-12-20T18:18:21;4.00;;;2.27;;
6358;SDS011;3212;51.460;11.868;2023-12-20T18:21:43;5.23;;;2.10;;
6358;SDS011;3212;51.460;11.868;2023-12-20T18:25:06;3.60;;;2.20;;
6358;SDS011;3212;51.460;11.868;2023-12-20T18:28:28;3.97;;;2.17;;
6358;SDS011;3212;51.460;11.868;2023-12-20T18:31:51;2.70;;;2.07;;
6358;SDS011;3212;51.460;11.868;2023-12-20T18:35:13;2.87;;;2.30;;
6358;SDS011;3212;51.460;11.868;2023-12-20T18:38:36;3.67;;;2.53;;
6358;SDS011;3212;51.460;11.868;2023-12-20T18:41:58;5.17;;;3.20;;
6358;SDS011;3212;51.460;11.868;2023-12-20T18:45:21;4.83;;;2.80;;
6358;SDS011;3212;51.460;11.868;2023-12-20T18:48:43;3.97;;;2.50;;
6358;SDS011;3212;51.460;11.868;2023-12-20T18:52:05;4.70;;;2.57;;
6358;SDS011;3212;51.460;11.868;2023-12-20T18:55:28;2.53;;;2.33;;
6358;SDS011;3212;51.460;11.868;2023-12-20T18:58:51;3.00;;;2.07;;
6358;SDS011;3212;51.460;11.868;2023-12-20T19:02:13;4.70;;;2.50;;
6358;SDS011;3212;51.460;11.868;2023-12-20T19:05:36;4.10;;;2.53;;
6358;SDS011;3212;51.460;11.868;2023-12-20T19:08:59;5.80;;;2.83;;
6358;SDS011;3212;51.460;11.868;2023-12-20T19:12:21;3.00;;;2.50;;
6358;SDS011;3212;51.460;11.868;2023-12-20T19:15:44;4.28;;;2.97;;
6358;SDS011;3212;51.460;11.868;2023-12-20T19:19:06;6.30;;;2.65;;
6358;SDS011;3212;51.460;11.868;2023-12-20T19:22:29;6.83;;;2.73;;
6358;SDS011;3212;51.460;11.868;2023-12-20T19:25:54;3.80;;;2.50;;
6358;SDS011;3212;51.460;11.868;2023-12-20T19:29:16;4.00;;;2.40;;
6358;SDS011;3212;51.460;11.868;2023-12-20T19:32:39;4.40;;;2.17;;
6358;SDS011;3212;51.460;11.868;2023-12-20T19:36:02;3.63;;;1.90;;
6358;SDS011;3212;51.460;11.868;2023-12-20T19:39:24;5.10;;;2.30;;
6358;SDS011;3212;51.460;11.868;2023-12-20T19:42:47;4.60;;;2.67;;
6358;SDS011;3212;51.460;11.868;2023-12-20T19:46:09;3.50;;;2.30;;
6358;SDS011;3212;51.460;11.868;2023-12-20T19:49:32;4.50;;;2.03;;
6358;SDS011;3212;51.460;11.868;2023-12-20T19:52:55;3.95;;;2.12;;
6358;SDS011;3212;51.460;11.868;2023-12-20T19:56:17;4.10;;;2.00;;
6358;SDS011;3212;51.460;11.868;2023-12-20T19:59:40;2.47;;;1.90;;
6358;SDS011;3212;51.460;11.868;2023-12-20T20:03:02;4.40;;;2.60;;
6358;SDS011;3212;51.460;11.868;2023-12-20T20:06:24;3.50;;;2.00;;
6358;SDS011;3212;51.460;11.868;2023-12-20T20:09:47;4.73;;;2.07;;
6358;SDS011;3212;51.460;11.868;2023-12-20T20:13:09;4.00;;;2.40;;
6358;SDS011;3212;51.460;11.868;2023-12-20T20:16:32;5.27;;;2.73;;
6358;SDS011;3212;51.460;11.868;2023-12-20T20:19:54;2.60;;;2.33;;
6358;SDS011;3212;51.460;11.868;2023-12-20T20:23:17;5.50;;;2.37;;
6358;SDS011;3212;51.460;11.868;2023-12-20T20:26:40;4.80;;;2.57;;
6358;SDS011;3212;51.460;11.868;2023-12-20T20:30:02;3.63;;;2.43;;
6358;SDS011;3212;51.460;11.868;2023-12-20T20:33:26;4.17;;;2.20;;
6358;SDS011;3212;51.460;11.868;2023-12-20T20:36:48;4.93;;;2.43;;
6358;SDS011;3212;51.460;11.868;2023-12-20T20:40:10;6.57;;;2.77;;
6358;SDS011;3212;51.460;11.868;2023-12-20T20:43:33;6.50;;;3.33;;